createdAt,value
2023-05-04T00:02:33.310Z,15.23
2023-05-04T00:07:35.667Z,15.29
2023-05-04T00:12:38.483Z,15.35
2023-05-04T00:17:41.309Z,15.34
2023-05-04T00:22:43.572Z,15.38
2023-05-04T00:27:45.936Z,15.46
2023-05-04T00:32:48.249Z,15.45
2023-05-04T00:37:50.495Z,15.21
2023-05-04T00:42:52.825Z,15.36
2023-05-04T00:47:55.569Z,15.42
2023-05-04T00:53:01.989Z,15.36
2023-05-04T00:58:04.315Z,15.24
2023-05-04T01:03:06.710Z,15.25
2023-05-04T01:08:15.656Z,15.17
2023-05-04T01:13:22.512Z,15.04
2023-05-04T01:18:24.783Z,15.13
2023-05-04T01:23:27.856Z,14.90
2023-05-04T01:28:41.953Z,15.04
2023-05-04T01:33:45.550Z,15.19
2023-05-04T01:38:54.667Z,15.09
2023-05-04T01:43:58.822Z,15.01
2023-05-04T01:49:01.085Z,15.14
2023-05-04T01:54:03.391Z,15.18
2023-05-04T01:59:05.585Z,15.10
2023-05-04T02:04:08.318Z,15.19
2023-05-04T02:09:10.705Z,15.17
2023-05-04T02:14:12.948Z,15.10
2023-05-04T02:19:15.096Z,14.92
2023-05-04T02:24:17.292Z,15.12
2023-05-04T02:29:19.477Z,14.98
2023-05-04T02:34:21.984Z,15.06
2023-05-04T02:39:24.156Z,15.17
2023-05-04T02:44:26.378Z,14.93
2023-05-04T02:49:28.737Z,15.27
2023-05-04T02:54:31.073Z,15.00
2023-05-04T02:59:33.457Z,15.43
2023-05-04T03:04:37.002Z,15.22
2023-05-04T03:09:39.389Z,14.81
2023-05-04T03:14:41.625Z,15.18
2023-05-04T03:19:43.912Z,15.14
2023-05-04T03:24:46.191Z,14.63
2023-05-04T03:29:48.452Z,14.76
2023-05-04T03:34:50.829Z,14.96
2023-05-04T03:39:53.059Z,14.91
2023-05-04T03:44:55.207Z,14.77
2023-05-04T03:49:57.467Z,14.55
2023-05-04T03:54:59.748Z,14.49
2023-05-04T04:00:02.244Z,14.36
2023-05-04T04:05:04.904Z,14.65
2023-05-04T04:10:08.201Z,14.94
2023-05-04T04:15:10.745Z,15.14
2023-05-04T04:20:13.540Z,15.28
2023-05-04T04:25:15.721Z,15.30
2023-05-04T04:30:18.231Z,15.44
2023-05-04T04:35:20.550Z,15.06
2023-05-04T04:40:23.274Z,14.38
2023-05-04T04:45:26.057Z,15.03
2023-05-04T04:50:29.539Z,14.98
2023-05-04T04:55:32.915Z,14.90
2023-05-04T05:00:36.072Z,15.22
2023-05-04T05:05:38.238Z,15.32
2023-05-04T05:10:41.966Z,15.45
2023-05-04T05:15:46.020Z,15.19
2023-05-04T05:20:48.959Z,14.95
2023-05-04T05:25:52.006Z,15.24
2023-05-04T05:30:54.483Z,15.54
2023-05-04T05:35:57.251Z,15.49
2023-05-04T05:40:59.647Z,15.77
2023-05-04T05:46:01.894Z,15.79
2023-05-04T05:51:04.510Z,15.87
2023-05-04T05:56:06.885Z,15.97
2023-05-04T06:01:09.173Z,16.17
2023-05-04T06:06:11.932Z,16.17
2023-05-04T06:11:14.445Z,16.10
2023-05-04T06:16:16.756Z,16.11
2023-05-04T06:21:18.995Z,15.99
2023-05-04T06:26:22.476Z,16.15
2023-05-04T06:31:24.716Z,16.36
2023-05-04T06:36:27.153Z,16.32
2023-05-04T06:41:29.774Z,16.24
2023-05-04T06:46:34.516Z,16.44
2023-05-04T06:51:38.044Z,16.59
2023-05-04T06:56:40.435Z,16.48
2023-05-04T07:01:42.938Z,16.55
2023-05-04T07:06:45.204Z,16.77
2023-05-04T07:11:48.960Z,16.67
2023-05-04T07:16:51.236Z,16.74
2023-05-04T07:21:53.480Z,16.82
2023-05-04T07:26:55.623Z,16.76
2023-05-04T07:31:57.791Z,16.86
2023-05-04T07:37:00.150Z,17.13
2023-05-04T07:42:04.518Z,17.35
2023-05-04T07:47:06.901Z,17.54
2023-05-04T07:52:09.357Z,17.50
2023-05-04T07:57:11.670Z,17.71
2023-05-04T08:02:14.203Z,17.78
2023-05-04T08:07:17.507Z,17.96
2023-05-04T08:12:19.819Z,18.07
2023-05-04T08:17:22.291Z,18.04
2023-05-04T08:22:25.065Z,18.34
2023-05-04T08:27:27.271Z,18.31
2023-05-04T08:32:32.541Z,18.56
2023-05-04T08:37:35.522Z,18.44
2023-05-04T08:42:38.369Z,18.84
2023-05-04T08:47:43.440Z,18.76
2023-05-04T08:52:49.515Z,19.00
2023-05-04T08:57:51.942Z,18.93
2023-05-04T09:02:55.244Z,19.28
2023-05-04T09:07:58.382Z,19.21
2023-05-04T09:13:00.975Z,19.30
2023-05-04T09:18:05.757Z,19.51
2023-05-04T09:23:09.570Z,19.65
2023-05-04T09:28:11.845Z,20.06
2023-05-04T09:33:14.109Z,20.14
2023-05-04T09:38:29.618Z,20.01
2023-05-04T09:43:42.426Z,20.29
2023-05-04T09:48:51.988Z,20.29
2023-05-04T09:53:54.912Z,20.23
2023-05-04T09:59:00.512Z,20.13
2023-05-04T10:04:04.479Z,20.42
2023-05-04T10:09:07.169Z,20.64
2023-05-04T10:14:09.864Z,20.73
2023-05-04T10:19:30.852Z,20.33
2023-05-04T10:25:25.340Z,20.15
2023-05-04T10:30:30.206Z,19.64
2023-05-04T10:35:33.106Z,19.82
2023-05-04T10:40:39.972Z,19.76
2023-05-04T10:45:42.617Z,20.13
2023-05-04T10:50:50.725Z,20.09
2023-05-04T10:55:53.018Z,20.47
2023-05-04T11:00:55.399Z,20.85
2023-05-04T11:05:57.866Z,20.88
2023-05-04T11:11:07.413Z,20.92
2023-05-04T11:16:12.943Z,21.05
2023-05-04T11:21:25.097Z,21.05
2023-05-04T11:26:28.737Z,21.30
2023-05-04T11:31:31.173Z,21.36
2023-05-04T11:36:40.154Z,21.45
2023-05-04T11:41:43.912Z,21.33
2023-05-04T11:46:46.187Z,21.28
2023-05-04T11:51:49.010Z,21.80
2023-05-04T11:56:51.277Z,22.01
2023-05-04T12:01:53.514Z,22.12
2023-05-04T12:06:55.808Z,22.19
2023-05-04T12:11:58.080Z,22.15
2023-05-04T12:17:03.316Z,22.10
2023-05-04T12:22:06.485Z,22.42
2023-05-04T12:27:15.222Z,22.76
2023-05-04T12:32:18.127Z,22.99
2023-05-04T12:37:21.067Z,23.43
2023-05-04T12:42:24.757Z,23.34
2023-05-04T12:47:27.130Z,23.00
2023-05-04T12:52:29.490Z,22.78
2023-05-04T12:57:31.714Z,22.46
2023-05-04T13:02:34.043Z,22.66
2023-05-04T13:07:36.743Z,22.65
2023-05-04T13:12:39.091Z,22.77
2023-05-04T13:17:43.922Z,22.78
2023-05-04T13:22:48.382Z,22.37
2023-05-04T13:27:50.637Z,22.10
2023-05-04T13:32:52.979Z,21.95
2023-05-04T13:37:55.481Z,22.04
2023-05-04T13:42:57.653Z,21.21
2023-05-04T13:47:59.936Z,21.13
2023-05-04T13:53:03.174Z,21.23
2023-05-04T13:58:05.429Z,21.37
2023-05-04T14:03:07.974Z,20.91
2023-05-04T14:08:11.157Z,20.22
2023-05-04T14:13:13.538Z,19.84
2023-05-04T14:18:16.271Z,19.55
2023-05-04T14:23:18.613Z,19.71
2023-05-04T14:28:20.807Z,19.30
2023-05-04T14:33:23.037Z,19.49
2023-05-04T14:38:25.276Z,19.24
2023-05-04T14:43:27.697Z,19.09
2023-05-04T14:48:29.976Z,19.36
2023-05-04T14:53:36.875Z,19.45
2023-05-04T14:58:40.380Z,19.12
2023-05-04T15:03:42.980Z,18.83
2023-05-04T15:08:46.010Z,19.45
2023-05-04T15:13:48.221Z,19.50
2023-05-04T15:18:50.480Z,19.47
2023-05-04T15:23:52.689Z,19.21
2023-05-04T15:28:55.326Z,19.15
2023-05-04T15:33:57.555Z,19.34
2023-05-04T15:39:00.167Z,19.47
2023-05-04T15:44:04.044Z,19.45
2023-05-04T15:49:06.312Z,19.45
2023-05-04T15:54:08.573Z,19.49
2023-05-04T15:59:10.777Z,19.19
2023-05-04T16:04:12.981Z,19.15
2023-05-04T16:09:20.527Z,19.14
2023-05-04T16:14:22.776Z,19.20
2023-05-04T16:19:25.092Z,18.98
2023-05-04T16:24:27.405Z,19.05
2023-05-04T16:29:29.824Z,18.65
2023-05-04T16:34:32.112Z,18.50
2023-05-04T16:39:34.888Z,19.11
2023-05-04T16:44:37.272Z,19.13
2023-05-04T16:49:39.462Z,18.98
2023-05-04T16:54:41.845Z,18.95
2023-05-04T16:59:44.110Z,18.84
2023-05-04T17:04:46.428Z,18.92
2023-05-04T17:09:48.853Z,18.66
2023-05-04T17:14:51.316Z,18.60
2023-05-04T17:19:53.690Z,18.80
2023-05-04T17:24:56.276Z,18.58
2023-05-04T17:29:58.503Z,18.36
2023-05-04T17:35:05.764Z,18.55
2023-05-04T17:40:18.596Z,18.46
2023-05-04T17:45:21.579Z,18.69
2023-05-04T17:50:24.019Z,18.69
2023-05-04T17:55:26.444Z,18.70
2023-05-04T18:00:28.920Z,18.41
2023-05-04T18:05:32.465Z,17.91
2023-05-04T18:10:34.992Z,18.57
2023-05-04T18:15:37.266Z,18.32
2023-05-04T18:20:39.721Z,18.17
2023-05-04T18:25:41.991Z,18.45
2023-05-04T18:30:44.238Z,18.28
2023-05-04T18:35:46.494Z,18.34
2023-05-04T18:40:53.901Z,18.34
2023-05-04T18:45:56.248Z,18.44
2023-05-04T18:50:58.911Z,18.34
2023-05-04T18:56:05.329Z,18.14
2023-05-04T19:01:07.682Z,18.36
2023-05-04T19:06:10.169Z,18.23
2023-05-04T19:11:12.699Z,18.35
2023-05-04T19:16:15.098Z,18.29
2023-05-04T19:21:17.371Z,18.12
2023-05-04T19:26:19.852Z,18.34
2023-05-04T19:31:22.152Z,18.19
2023-05-04T19:36:24.392Z,18.31
2023-05-04T19:41:27.181Z,18.28
2023-05-04T19:46:31.604Z,17.93
2023-05-04T19:51:34.318Z,18.21
2023-05-04T19:56:36.712Z,18.37
2023-05-04T20:01:39.035Z,18.30
2023-05-04T20:06:41.553Z,18.08
2023-05-04T20:11:43.826Z,18.06
2023-05-04T20:16:46.204Z,18.04
2023-05-04T20:21:48.482Z,18.11
2023-05-04T20:26:50.825Z,18.20
2023-05-04T20:31:53.402Z,18.16
2023-05-04T20:36:56.081Z,18.14
2023-05-04T20:41:59.673Z,18.05
2023-05-04T20:47:02.051Z,18.03
2023-05-04T20:52:04.859Z,17.78
2023-05-04T20:57:07.227Z,17.51
2023-05-04T21:02:09.803Z,17.32
2023-05-04T21:07:12.141Z,17.33
2023-05-04T21:12:14.445Z,17.99
2023-05-04T21:17:16.831Z,17.69
2023-05-04T21:22:19.236Z,17.83
2023-05-04T21:27:21.627Z,17.59
2023-05-04T21:32:24.242Z,17.21
2023-05-04T21:37:26.571Z,17.08
2023-05-04T21:42:28.922Z,17.28
2023-05-04T21:47:31.514Z,16.86
2023-05-04T21:52:33.838Z,17.41
2023-05-04T21:57:36.106Z,17.18
2023-05-04T22:02:39.311Z,16.53
2023-05-04T22:07:41.567Z,16.76
2023-05-04T22:12:43.860Z,16.71
2023-05-04T22:17:46.543Z,16.37
2023-05-04T22:22:48.774Z,16.53
2023-05-04T22:27:51.103Z,16.21
2023-05-04T22:32:54.097Z,16.04
2023-05-04T22:37:56.390Z,16.27
2023-05-04T22:42:58.550Z,16.69
2023-05-04T22:48:00.805Z,16.75
2023-05-04T22:53:03.145Z,16.85
2023-05-04T22:58:05.406Z,17.15
2023-05-04T23:03:08.456Z,17.03
2023-05-04T23:08:10.819Z,16.65
2023-05-04T23:13:13.534Z,17.24
2023-05-04T23:18:15.918Z,16.98
2023-05-04T23:23:18.124Z,17.05
2023-05-04T23:28:20.296Z,17.28
2023-05-04T23:33:22.609Z,17.40
2023-05-04T23:38:24.960Z,16.95
2023-05-04T23:43:27.246Z,16.71
2023-05-04T23:48:32.922Z,16.78
2023-05-04T23:53:38.553Z,16.31
2023-05-04T23:58:42.491Z,16.16
